Time;durP1;ratioP1;P1;durP2;ratioP2;P2;SDS_P1;SDS_P2;PMS_P1;PMS_P2;Temp;Humidity;BMP_temperature;BMP_pressure;BME280_temperature;BME280_humidity;BME280_pressure;Samples;Min_cycle;Max_cycle;Signal;HPM_P1;HPM_P2
2022/06/29 00:02:06;;;;;;;0.20;0.17;;;;;;;;;;5012571;28;20030;-76
2022/06/29 00:04:31;;;;;;;1.13;0.75;;;;;;;;;;5013109;28;20462;-76
2022/06/29 00:06:57;;;;;;;1.75;0.70;;;;;;;;;;5012162;28;20061;-77
2022/06/29 00:09:23;;;;;;;0.03;0.03;;;;;;;;;;5011835;28;20419;-77
2022/06/29 00:11:50;;;;;;;0.00;0.00;;;;;;;;;;4996738;28;20355;-76
2022/06/29 00:14:15;;;;;;;2.83;0.82;;;;;;;;;;5011045;28;20029;-77
2022/06/29 00:16:41;;;;;;;0.45;0.43;;;;;;;;;;5012895;28;20040;-77
2022/06/29 00:19:06;;;;;;;0.40;0.32;;;;;;;;;;5011151;28;20247;-78
2022/06/29 00:21:33;;;;;;;0.68;0.60;;;;;;;;;;5013685;28;20436;-76
2022/06/29 00:23:59;;;;;;;0.40;0.40;;;;;;;;;;5011822;28;20423;-77
2022/06/29 00:26:27;;;;;;;0.73;0.70;;;;;;;;;;5016756;28;20029;-77
2022/06/29 00:28:53;;;;;;;1.48;0.57;;;;;;;;;;5011509;28;20029;-77
2022/06/29 00:31:18;;;;;;;0.73;0.28;;;;;;;;;;5017683;28;20461;-77
2022/06/29 00:33:44;;;;;;;1.83;1.20;;;;;;;;;;5012537;28;20025;-77
2022/06/29 00:36:12;;;;;;;0.15;0.10;;;;;;;;;;5012923;28;20053;-77
2022/06/29 00:38:37;;;;;;;0.93;0.82;;;;;;;;;;5014769;28;20335;-78
2022/06/29 00:41:07;;;;;;;0.10;0.10;;;;;;;;;;4998140;28;20117;-76
2022/06/29 00:43:45;;;;;;;0.10;0.10;;;;;;;;;;5015411;28;20022;-79
2022/06/29 00:46:14;;;;;;;0.40;0.40;;;;;;;;;;5016085;28;20029;-77
2022/06/29 00:48:41;;;;;;;0.45;0.38;;;;;;;;;;5016524;28;20443;-78
2022/06/29 00:51:10;;;;;;;0.70;0.50;;;;;;;;;;5016567;28;20101;-77
2022/06/29 00:53:40;;;;;;;0.25;0.25;;;;;;;;;;5016669;28;20109;-77
2022/06/29 00:56:13;;;;;;;0.63;0.40;;;;;;;;;;5027395;28;20121;-77
2022/06/29 00:58:40;;;;;;;0.60;0.40;;;;;;;;;;4997601;28;20022;-84
2022/06/29 01:01:06;;;;;;;0.40;0.40;;;;;;;;;;4999006;28;20044;-85
2022/06/29 01:03:32;;;;;;;3.00;0.75;;;;;;;;;;5016043;28;20104;-84
2022/06/29 01:06:00;;;;;;;0.20;0.20;;;;;;;;;;4998477;28;20363;-85
2022/06/29 01:08:28;;;;;;;0.40;0.40;;;;;;;;;;4999093;28;20036;-85
2022/06/29 01:10:56;;;;;;;0.20;0.20;;;;;;;;;;5001770;28;20160;-83
2022/06/29 01:13:27;;;;;;;0.35;0.35;;;;;;;;;;5002630;28;20481;-82
2022/06/29 01:15:52;;;;;;;1.15;1.13;;;;;;;;;;5004845;28;20037;-83
2022/06/29 01:18:20;;;;;;;0.35;0.30;;;;;;;;;;4994506;28;20041;-84
2022/06/29 01:20:47;;;;;;;0.70;0.70;;;;;;;;;;4997596;28;20112;-84
2022/06/29 01:23:13;;;;;;;2.95;0.90;;;;;;;;;;4987367;28;20039;-85
2022/06/29 01:25:39;;;;;;;0.40;0.40;;;;;;;;;;5008206;28;20029;-84
2022/06/29 01:28:04;;;;;;;0.20;0.20;;;;;;;;;;5000636;28;20025;-85
2022/06/29 01:30:30;;;;;;;0.77;0.55;;;;;;;;;;4997988;28;20398;-84
2022/06/29 01:32:58;;;;;;;0.30;0.30;;;;;;;;;;4995162;28;20367;-84
2022/06/29 01:35:23;;;;;;;2.45;0.57;;;;;;;;;;4998765;28;20040;-85
2022/06/29 01:37:49;;;;;;;0.25;0.25;;;;;;;;;;4999453;28;20033;-84
2022/06/29 01:40:15;;;;;;;0.43;0.20;;;;;;;;;;4997969;28;20022;-83
2022/06/29 01:42:40;;;;;;;2.45;0.55;;;;;;;;;;4996968;28;20428;-84
2022/06/29 01:45:06;;;;;;;0.93;0.82;;;;;;;;;;4998924;28;20026;-84
2022/06/29 01:47:34;;;;;;;0.30;0.30;;;;;;;;;;5000881;28;20164;-85
2022/06/29 01:50:04;;;;;;;0.22;0.20;;;;;;;;;;4997058;28;20026;-84
2022/06/29 01:52:30;;;;;;;0.55;0.55;;;;;;;;;;4998342;28;20030;-82
2022/06/29 01:54:55;;;;;;;0.70;0.40;;;;;;;;;;5027322;28;20187;-79
2022/06/29 01:57:21;;;;;;;0.43;0.28;;;;;;;;;;5019802;28;20035;-82
2022/06/29 01:59:49;;;;;;;0.85;0.52;;;;;;;;;;5001464;28;20025;-82
2022/06/29 02:02:14;;;;;;;0.98;0.82;;;;;;;;;;5001192;28;20037;-82
2022/06/29 02:04:39;;;;;;;0.30;0.30;;;;;;;;;;4999620;28;20026;-83
2022/06/29 02:07:05;;;;;;;0.20;0.20;;;;;;;;;;4996951;28;20483;-83
2022/06/29 02:09:30;;;;;;;1.10;0.45;;;;;;;;;;4996079;28;20022;-83
2022/06/29 02:12:01;;;;;;;0.55;0.55;;;;;;;;;;5017557;28;20022;-85
2022/06/29 02:14:29;;;;;;;1.10;0.77;;;;;;;;;;5014554;28;20443;-85
2022/06/29 02:16:57;;;;;;;1.02;0.50;;;;;;;;;;4995154;28;20129;-84
2022/06/29 02:19:25;;;;;;;0.55;0.55;;;;;;;;;;5013335;28;20123;-84
2022/06/29 02:21:50;;;;;;;0.70;0.30;;;;;;;;;;5000082;28;20034;-83
2022/06/29 02:24:18;;;;;;;0.20;0.20;;;;;;;;;;4997818;28;20049;-84
2022/06/29 02:26:43;;;;;;;0.30;0.20;;;;;;;;;;5008498;28;20108;-84
2022/06/29 02:29:11;;;;;;;1.02;0.50;;;;;;;;;;5013263;28;20125;-84
2022/06/29 02:34:46;;;;;;;0.28;0.28;;;;;;;;;;5014150;28;20053;-82
2022/06/29 02:37:15;;;;;;;2.08;0.98;;;;;;;;;;4997294;28;20191;-82
2022/06/29 02:39:42;;;;;;;0.82;0.50;;;;;;;;;;4997862;28;20045;-82
2022/06/29 02:42:09;;;;;;;4.47;1.00;;;;;;;;;;4996832;28;20104;-82
2022/06/29 02:44:36;;;;;;;0.40;0.40;;;;;;;;;;4997949;28;20036;-82
2022/06/29 02:47:05;;;;;;;1.00;0.68;;;;;;;;;;5008804;28;20047;-82
2022/06/29 02:49:33;;;;;;;0.40;0.40;;;;;;;;;;4991253;28;20037;-82
2022/06/29 02:52:01;;;;;;;0.88;0.55;;;;;;;;;;5012795;28;20026;-82
2022/06/29 02:54:26;;;;;;;1.00;0.52;;;;;;;;;;5013378;28;20025;-81
2022/06/29 02:56:54;;;;;;;0.85;0.85;;;;;;;;;;4996967;28;20036;-82
2022/06/29 02:59:23;;;;;;;0.20;0.20;;;;;;;;;;5005138;28;20478;-83
2022/06/29 03:01:49;;;;;;;0.35;0.35;;;;;;;;;;4996682;28;20386;-83
2022/06/29 03:04:14;;;;;;;1.15;0.50;;;;;;;;;;4997337;28;20113;-83
2022/06/29 03:06:42;;;;;;;0.32;0.32;;;;;;;;;;4997239;28;20029;-81
2022/06/29 03:09:08;;;;;;;3.47;0.45;;;;;;;;;;4998405;28;20026;-81
2022/06/29 03:11:33;;;;;;;4.40;0.60;;;;;;;;;;5013588;28;20092;-82
2022/06/29 03:13:59;;;;;;;0.55;0.40;;;;;;;;;;4994071;28;20034;-84
2022/06/29 03:16:24;;;;;;;0.30;0.30;;;;;;;;;;5005558;28;20033;-84
2022/06/29 03:18:52;;;;;;;0.50;0.30;;;;;;;;;;4999244;28;20041;-85
2022/06/29 03:21:21;;;;;;;0.15;0.15;;;;;;;;;;4996906;28;20367;-84
2022/06/29 03:23:49;;;;;;;0.47;0.47;;;;;;;;;;5003920;28;20034;-85
2022/06/29 03:26:15;;;;;;;1.35;0.93;;;;;;;;;;5016424;28;20136;-84
2022/06/29 03:28:40;;;;;;;0.20;0.20;;;;;;;;;;4997001;28;20134;-84
2022/06/29 03:31:06;;;;;;;0.98;0.52;;;;;;;;;;4997331;28;20057;-85
2022/06/29 03:33:31;;;;;;;0.47;0.43;;;;;;;;;;5001223;28;20057;-84
2022/06/29 03:36:04;;;;;;;0.50;0.40;;;;;;;;;;5016626;28;20029;-84
2022/06/29 03:38:30;;;;;;;0.60;0.47;;;;;;;;;;4998213;28;20072;-82
2022/06/29 03:40:55;;;;;;;0.10;0.10;;;;;;;;;;4997289;28;20053;-84
2022/06/29 03:43:23;;;;;;;0.73;0.73;;;;;;;;;;4996957;28;20064;-85
2022/06/29 03:45:48;;;;;;;3.30;0.38;;;;;;;;;;5002454;28;20021;-85
2022/06/29 03:48:15;;;;;;;0.30;0.30;;;;;;;;;;5000647;28;20022;-84
2022/06/29 03:50:40;;;;;;;0.40;0.40;;;;;;;;;;4994963;28;20025;-83
2022/06/29 03:53:06;;;;;;;0.60;0.57;;;;;;;;;;4996851;28;20026;-84
2022/06/29 03:55:32;;;;;;;0.40;0.40;;;;;;;;;;5011996;28;20079;-82
2022/06/29 03:57:59;;;;;;;2.05;0.32;;;;;;;;;;5003654;28;20104;-85
2022/06/29 04:00:25;;;;;;;0.17;0.17;;;;;;;;;;5013800;28;20021;-82
2022/06/29 04:02:55;;;;;;;0.22;0.22;;;;;;;;;;4996906;28;20036;-83
2022/06/29 04:05:21;;;;;;;0.47;0.47;;;;;;;;;;5001122;28;20034;-82
2022/06/29 04:07:48;;;;;;;1.77;0.90;;;;;;;;;;5017965;28;20018;-83
2022/06/29 04:10:16;;;;;;;0.63;0.50;;;;;;;;;;4997400;28;20029;-83
2022/06/29 04:12:41;;;;;;;0.10;0.10;;;;;;;;;;4997758;28;20018;-82
2022/06/29 04:15:09;;;;;;;0.20;0.20;;;;;;;;;;5016760;28;20022;-81
2022/06/29 04:17:35;;;;;;;0.32;0.30;;;;;;;;;;5010790;28;20130;-83
2022/06/29 04:20:05;;;;;;;0.52;0.52;;;;;;;;;;5004273;28;20026;-82
2022/06/29 04:22:32;;;;;;;0.40;0.40;;;;;;;;;;5018030;28;20084;-81
2022/06/29 04:24:59;;;;;;;0.30;0.30;;;;;;;;;;5000641;28;20032;-83
2022/06/29 04:27:27;;;;;;;1.38;0.65;;;;;;;;;;5015876;28;20030;-83
2022/06/29 04:29:54;;;;;;;1.75;1.08;;;;;;;;;;4987696;28;20113;-82
2022/06/29 04:32:20;;;;;;;0.45;0.45;;;;;;;;;;5001073;28;20095;-82
2022/06/29 04:34:45;;;;;;;1.02;0.75;;;;;;;;;;4999234;28;20121;-83
2022/06/29 04:37:11;;;;;;;0.32;0.30;;;;;;;;;;5012191;28;20032;-84
2022/06/29 04:39:36;;;;;;;0.10;0.10;;;;;;;;;;4994503;28;20026;-84
2022/06/29 04:42:02;;;;;;;0.80;0.32;;;;;;;;;;5004418;28;20030;-84
2022/06/29 04:44:27;;;;;;;0.25;0.25;;;;;;;;;;4999855;28;20147;-83
2022/06/29 04:46:54;;;;;;;0.10;0.10;;;;;;;;;;5008707;28;20042;-84
2022/06/29 04:49:22;;;;;;;0.98;0.40;;;;;;;;;;4999797;28;20543;-83
2022/06/29 04:51:48;;;;;;;0.52;0.52;;;;;;;;;;4996697;28;20022;-84
2022/06/29 04:54:16;;;;;;;0.93;0.73;;;;;;;;;;4980878;28;20466;-84
2022/06/29 04:56:44;;;;;;;0.43;0.25;;;;;;;;;;5002659;28;20033;-83
2022/06/29 04:59:10;;;;;;;0.10;0.10;;;;;;;;;;4999886;28;20033;-83
2022/06/29 05:01:35;;;;;;;0.52;0.52;;;;;;;;;;5018861;28;20030;-82
2022/06/29 05:04:01;;;;;;;0.30;0.30;;;;;;;;;;5018345;28;20072;-83
2022/06/29 05:06:31;;;;;;;0.10;0.10;;;;;;;;;;5004335;28;20408;-82
2022/06/29 05:08:57;;;;;;;0.30;0.30;;;;;;;;;;4999650;28;20052;-83
2022/06/29 05:11:23;;;;;;;0.73;0.73;;;;;;;;;;5005668;28;20013;-81
2022/06/29 05:13:49;;;;;;;0.30;0.30;;;;;;;;;;5015452;28;20352;-83
2022/06/29 05:16:19;;;;;;;0.60;0.35;;;;;;;;;;5001630;28;20413;-84
2022/06/29 05:18:50;;;;;;;1.65;0.73;;;;;;;;;;4998740;28;20037;-83
2022/06/29 05:21:20;;;;;;;0.45;0.45;;;;;;;;;;4998235;28;20026;-84
2022/06/29 05:23:46;;;;;;;0.40;0.40;;;;;;;;;;5000261;28;20022;-83
2022/06/29 05:26:15;;;;;;;0.45;0.28;;;;;;;;;;5000755;28;20458;-84
2022/06/29 05:28:40;;;;;;;0.45;0.45;;;;;;;;;;4998526;28;20034;-84
2022/06/29 05:31:08;;;;;;;0.57;0.57;;;;;;;;;;5000430;28;20022;-82
2022/06/29 05:33:36;;;;;;;0.13;0.13;;;;;;;;;;5015297;28;20105;-85
2022/06/29 05:36:03;;;;;;;0.47;0.45;;;;;;;;;;4998023;28;20030;-84
2022/06/29 05:38:32;;;;;;;0.77;0.77;;;;;;;;;;4987907;28;20033;-83
2022/06/29 05:41:00;;;;;;;0.20;0.20;;;;;;;;;;4997879;28;20030;-84
2022/06/29 05:43:26;;;;;;;0.65;0.65;;;;;;;;;;4997344;28;20025;-83
2022/06/29 05:45:54;;;;;;;3.92;0.80;;;;;;;;;;5000215;28;20041;-80
2022/06/29 05:48:20;;;;;;;5.47;1.23;;;;;;;;;;4998666;28;20061;-84
2022/06/29 05:50:45;;;;;;;0.45;0.30;;;;;;;;;;5026221;28;20056;-83
2022/06/29 05:53:11;;;;;;;0.30;0.30;;;;;;;;;;5014687;28;20057;-83
2022/06/29 05:55:36;;;;;;;0.63;0.50;;;;;;;;;;5015162;28;20080;-84
2022/06/29 05:58:04;;;;;;;0.50;0.50;;;;;;;;;;4999942;28;20022;-84
2022/06/29 06:00:29;;;;;;;2.65;0.60;;;;;;;;;;5009632;28;20117;-84
2022/06/29 06:02:57;;;;;;;0.63;0.63;;;;;;;;;;4995755;28;20117;-83
2022/06/29 06:05:22;;;;;;;0.40;0.40;;;;;;;;;;4998750;28;20570;-83
2022/06/29 06:07:48;;;;;;;0.52;0.52;;;;;;;;;;4997288;28;20030;-82
2022/06/29 06:10:13;;;;;;;0.68;0.68;;;;;;;;;;5001382;28;20116;-82
2022/06/29 06:12:41;;;;;;;1.67;1.02;;;;;;;;;;5001116;28;20566;-83
2022/06/29 06:15:12;;;;;;;0.95;0.60;;;;;;;;;;4992778;28;20410;-82
2022/06/29 06:17:42;;;;;;;0.38;0.38;;;;;;;;;;5011218;28;20029;-87
2022/06/29 06:20:09;;;;;;;1.70;0.95;;;;;;;;;;5005661;28;20064;-87
2022/06/29 06:22:34;;;;;;;0.60;0.50;;;;;;;;;;4999419;28;20027;-86
2022/06/29 06:25:00;;;;;;;2.17;1.05;;;;;;;;;;5008561;28;20421;-83
2022/06/29 06:27:25;;;;;;;1.15;1.05;;;;;;;;;;4996547;28;20029;-84
2022/06/29 06:29:50;;;;;;;0.30;0.30;;;;;;;;;;4995457;28;20041;-86
2022/06/29 06:32:18;;;;;;;1.70;1.55;;;;;;;;;;4994824;28;20028;-84
2022/06/29 06:34:44;;;;;;;0.73;0.60;;;;;;;;;;5008658;28;20033;-86
2022/06/29 06:37:12;;;;;;;0.43;0.30;;;;;;;;;;4997856;28;20029;-84
2022/06/29 06:39:37;;;;;;;0.70;0.57;;;;;;;;;;4992928;28;20030;-85
2022/06/29 06:42:03;;;;;;;1.10;0.35;;;;;;;;;;4987295;28;20096;-83
2022/06/29 06:44:30;;;;;;;0.60;0.60;;;;;;;;;;4997721;28;20037;-83
2022/06/29 06:46:56;;;;;;;0.93;0.47;;;;;;;;;;4998256;28;20036;-83
2022/06/29 06:49:24;;;;;;;0.45;0.28;;;;;;;;;;4997060;28;20777;-83
2022/06/29 06:51:50;;;;;;;1.38;0.95;;;;;;;;;;4998273;28;20453;-83
2022/06/29 06:54:16;;;;;;;3.80;0.88;;;;;;;;;;4997861;28;20026;-84
2022/06/29 06:56:46;;;;;;;2.28;1.05;;;;;;;;;;5014335;28;20084;-83
2022/06/29 06:59:15;;;;;;;1.92;0.98;;;;;;;;;;4994985;28;20129;-83
2022/06/29 07:01:40;;;;;;;1.17;0.20;;;;;;;;;;4998767;28;20033;-83
2022/06/29 07:04:06;;;;;;;0.50;0.50;;;;;;;;;;5008865;28;20044;-84
2022/06/29 07:06:31;;;;;;;1.95;0.88;;;;;;;;;;5018396;28;20100;-83
2022/06/29 07:08:59;;;;;;;0.30;0.30;;;;;;;;;;5001917;28;20394;-83
2022/06/29 07:11:24;;;;;;;0.38;0.38;;;;;;;;;;4994512;28;20080;-84
2022/06/29 07:13:50;;;;;;;1.63;0.77;;;;;;;;;;4990328;28;20042;-83
2022/06/29 07:16:15;;;;;;;0.10;0.10;;;;;;;;;;4999989;28;20396;-83
2022/06/29 07:18:41;;;;;;;0.30;0.30;;;;;;;;;;4997302;28;20049;-83
2022/06/29 07:21:08;;;;;;;1.50;1.13;;;;;;;;;;5010493;28;20101;-84
2022/06/29 07:23:34;;;;;;;0.85;0.50;;;;;;;;;;5005919;28;20455;-83
2022/06/29 07:25:59;;;;;;;4.50;2.10;;;;;;;;;;5002266;28;20033;-83
2022/06/29 07:28:25;;;;;;;0.80;0.63;;;;;;;;;;5029071;28;20335;-84
2022/06/29 07:31:37;;;;;;;0.75;0.32;;;;;;;;;;5001116;28;20120;-84
2022/06/29 07:34:05;;;;;;;0.13;0.13;;;;;;;;;;5002520;28;20431;-82
2022/06/29 07:36:35;;;;;;;0.47;0.47;;;;;;;;;;5013338;28;20506;-82
2022/06/29 07:39:03;;;;;;;0.25;0.25;;;;;;;;;;4995496;28;20035;-84
2022/06/29 07:41:29;;;;;;;0.63;0.63;;;;;;;;;;4996046;28;20065;-82
2022/06/29 07:43:57;;;;;;;0.40;0.40;;;;;;;;;;4996764;28;20096;-83
2022/06/29 07:46:25;;;;;;;0.52;0.52;;;;;;;;;;4994747;28;20025;-83
2022/06/29 07:48:53;;;;;;;0.73;0.70;;;;;;;;;;5017357;28;20075;-83
2022/06/29 07:51:21;;;;;;;0.57;0.35;;;;;;;;;;4997512;28;20029;-84
2022/06/29 07:53:47;;;;;;;2.05;0.95;;;;;;;;;;5009574;28;20030;-85
2022/06/29 07:56:18;;;;;;;0.35;0.35;;;;;;;;;;4980225;28;20036;-85
2022/06/29 07:58:46;;;;;;;1.92;0.47;;;;;;;;;;4996658;28;20025;-85
2022/06/29 08:01:27;;;;;;;1.77;0.60;;;;;;;;;;4992950;28;20044;-87
2022/06/29 08:03:55;;;;;;;0.70;0.70;;;;;;;;;;4990032;28;20037;-86
2022/06/29 08:06:22;;;;;;;3.30;0.63;;;;;;;;;;4989255;28;20076;-84
2022/06/29 08:08:53;;;;;;;5.13;0.85;;;;;;;;;;5007197;28;20439;-85
2022/06/29 08:11:22;;;;;;;0.40;0.40;;;;;;;;;;5001852;28;20018;-80
2022/06/29 08:13:47;;;;;;;4.28;0.70;;;;;;;;;;4989755;28;20030;-86
2022/06/29 08:23:33;;;;;;;1.55;0.90;;;;;;;;;;5013232;28;20482;-88
2022/06/29 08:26:08;;;;;;;1.77;0.80;;;;;;;;;;4997467;28;20029;-87
2022/06/29 08:28:36;;;;;;;2.70;1.33;;;;;;;;;;4996426;28;20041;-86
2022/06/29 08:31:11;;;;;;;0.60;0.60;;;;;;;;;;4992582;28;20033;-85
2022/06/29 08:33:36;;;;;;;1.60;0.70;;;;;;;;;;5011275;28;20511;-84
2022/06/29 08:36:04;;;;;;;1.60;0.57;;;;;;;;;;4997033;28;20109;-85
2022/06/29 08:38:44;;;;;;;1.55;0.82;;;;;;;;;;4996498;28;20033;-82
2022/06/29 08:41:10;;;;;;;0.20;0.20;;;;;;;;;;5010319;28;20038;-86
2022/06/29 08:43:42;;;;;;;0.45;0.40;;;;;;;;;;4996139;28;20109;-87
2022/06/29 08:46:07;;;;;;;3.17;0.30;;;;;;;;;;5012496;28;20424;-84
2022/06/29 08:48:42;;;;;;;0.22;0.22;;;;;;;;;;4996220;28;20106;-84
2022/06/29 08:51:14;;;;;;;0.30;0.30;;;;;;;;;;4989430;28;20014;-85
2022/06/29 08:53:47;;;;;;;1.33;0.70;;;;;;;;;;4996178;28;20046;-79
2022/06/29 08:56:15;;;;;;;0.52;0.40;;;;;;;;;;5005996;28;20091;-85
2022/06/29 08:59:03;;;;;;;1.02;0.68;;;;;;;;;;5014176;28;20088;-83
2022/06/29 09:01:31;;;;;;;0.52;0.52;;;;;;;;;;5016886;28;20447;-84
2022/06/29 09:04:03;;;;;;;0.68;0.45;;;;;;;;;;5014070;28;20034;-87
2022/06/29 09:06:28;;;;;;;0.32;0.32;;;;;;;;;;5014732;28;20038;-85
2022/06/29 09:08:57;;;;;;;1.85;1.10;;;;;;;;;;4999532;28;20040;-85
2022/06/29 09:11:30;;;;;;;0.40;0.40;;;;;;;;;;4996116;28;20026;-85
2022/06/29 09:14:34;;;;;;;1.20;0.70;;;;;;;;;;4999885;28;20100;-85
2022/06/29 09:17:03;;;;;;;0.40;0.40;;;;;;;;;;4996481;28;20029;-85
2022/06/29 09:19:37;;;;;;;0.93;0.73;;;;;;;;;;5000246;28;20026;-85
2022/06/29 09:22:06;;;;;;;0.30;0.30;;;;;;;;;;5015417;28;20105;-86
2022/06/29 09:24:35;;;;;;;1.85;1.45;;;;;;;;;;4998989;28;20022;-88
2022/06/29 09:27:03;;;;;;;0.40;0.40;;;;;;;;;;4999247;28;20461;-86
2022/06/29 09:29:32;;;;;;;2.38;1.25;;;;;;;;;;4998700;28;20041;-86
2022/06/29 09:32:25;;;;;;;1.02;0.47;;;;;;;;;;4999825;28;20463;-87
2022/06/29 09:34:51;;;;;;;0.95;0.82;;;;;;;;;;5015733;28;20029;-85
2022/06/29 09:37:21;;;;;;;0.60;0.40;;;;;;;;;;4999234;28;20161;-81
2022/06/29 09:39:59;;;;;;;1.17;0.93;;;;;;;;;;5014464;28;20072;-87
2022/06/29 09:42:32;;;;;;;0.40;0.40;;;;;;;;;;4996662;28;20034;-82
2022/06/29 09:44:58;;;;;;;1.02;0.90;;;;;;;;;;5011993;28;20328;-83
2022/06/29 09:47:25;;;;;;;0.43;0.25;;;;;;;;;;5000746;28;20045;-85
2022/06/29 09:50:10;;;;;;;0.73;0.57;;;;;;;;;;4997122;28;20062;-85
2022/06/29 09:55:30;;;;;;;1.63;1.52;;;;;;;;;;5009851;28;20378;-85
2022/06/29 09:57:56;;;;;;;1.00;0.57;;;;;;;;;;4998340;28;20018;-81
2022/06/29 10:03:12;;;;;;;1.85;0.68;;;;;;;;;;5013491;28;20411;-85
2022/06/29 10:05:55;;;;;;;0.65;0.32;;;;;;;;;;4991713;28;20040;-84
2022/06/29 10:08:20;;;;;;;1.75;0.52;;;;;;;;;;4996511;28;20057;-84
2022/06/29 10:10:56;;;;;;;1.02;0.73;;;;;;;;;;5000290;28;20091;-86
2022/06/29 10:13:42;;;;;;;2.25;0.63;;;;;;;;;;5008566;28;20348;-87
2022/06/29 10:16:29;;;;;;;0.43;0.43;;;;;;;;;;4993982;28;20490;-85
2022/06/29 10:18:54;;;;;;;0.75;0.60;;;;;;;;;;4996154;28;20104;-91
2022/06/29 10:21:25;;;;;;;0.77;0.40;;;;;;;;;;5014974;28;20116;-89
2022/06/29 10:23:50;;;;;;;1.55;0.75;;;;;;;;;;5013646;28;20033;-88
2022/06/29 10:26:46;;;;;;;0.65;0.50;;;;;;;;;;5012077;28;20036;-88
2022/06/29 10:29:27;;;;;;;0.98;0.75;;;;;;;;;;5014365;28;20461;-87
2022/06/29 10:31:53;;;;;;;0.68;0.68;;;;;;;;;;5014502;28;20049;-86
2022/06/29 10:34:30;;;;;;;5.10;1.02;;;;;;;;;;5014559;28;20049;-87
2022/06/29 10:37:01;;;;;;;1.98;0.90;;;;;;;;;;5027569;28;20053;-90
2022/06/29 10:39:42;;;;;;;1.87;0.70;;;;;;;;;;5013939;28;20048;-90
2022/06/29 10:45:16;;;;;;;0.77;0.77;;;;;;;;;;5011234;28;20136;-87
2022/06/29 10:47:56;;;;;;;0.68;0.50;;;;;;;;;;5012827;28;20030;-85
2022/06/29 10:50:25;;;;;;;1.55;0.85;;;;;;;;;;5012039;28;20029;-84
2022/06/29 10:52:54;;;;;;;0.35;0.35;;;;;;;;;;5015537;28;20041;-83
2022/06/29 10:55:21;;;;;;;5.45;1.65;;;;;;;;;;4996488;28;20025;-83
2022/06/29 10:57:49;;;;;;;1.17;0.80;;;;;;;;;;5013035;28;20049;-85
2022/06/29 11:00:16;;;;;;;3.90;1.08;;;;;;;;;;5011959;28;20021;-84
2022/06/29 11:02:42;;;;;;;0.32;0.32;;;;;;;;;;5014691;28;20032;-84
2022/06/29 11:05:09;;;;;;;0.52;0.52;;;;;;;;;;5011369;28;20026;-82
2022/06/29 11:13:10;;;;;;;3.75;1.35;;;;;;;;;;5009981;28;20076;-80
2022/06/29 11:15:42;;;;;;;2.10;0.90;;;;;;;;;;5016106;28;20033;-83
2022/06/29 11:18:21;;;;;;;1.05;0.85;;;;;;;;;;5009103;28;20060;-84
2022/06/29 11:20:53;;;;;;;0.65;0.60;;;;;;;;;;5014064;28;20471;-83
2022/06/29 11:23:20;;;;;;;0.88;0.88;;;;;;;;;;5025782;28;20033;-83
2022/06/29 11:25:49;;;;;;;0.30;0.30;;;;;;;;;;5012522;28;20032;-81
2022/06/29 11:28:18;;;;;;;0.40;0.40;;;;;;;;;;5012860;28;20183;-81
2022/06/29 11:31:02;;;;;;;0.82;0.45;;;;;;;;;;5011151;28;20030;-86
2022/06/29 11:33:38;;;;;;;0.63;0.50;;;;;;;;;;5015805;28;20033;-86
2022/06/29 11:36:08;;;;;;;1.08;1.00;;;;;;;;;;5013674;28;20371;-84
2022/06/29 11:38:47;;;;;;;4.35;0.98;;;;;;;;;;5013514;28;20025;-84
2022/06/29 11:41:25;;;;;;;0.98;0.93;;;;;;;;;;5013634;28;20108;-85
2022/06/29 11:44:32;;;;;;;0.82;0.57;;;;;;;;;;5013979;28;20049;-85
2022/06/29 11:46:59;;;;;;;0.43;0.43;;;;;;;;;;5011056;28;20025;-84
2022/06/29 11:49:36;;;;;;;0.55;0.40;;;;;;;;;;5013012;28;20117;-82
2022/06/29 11:52:05;;;;;;;1.60;0.90;;;;;;;;;;5020593;28;20030;-85
2022/06/29 11:54:52;;;;;;;0.93;0.77;;;;;;;;;;4998720;28;20084;-84
2022/06/29 11:57:21;;;;;;;3.17;1.02;;;;;;;;;;5006585;28;20478;-90
2022/06/29 12:00:06;;;;;;;1.00;0.77;;;;;;;;;;5006638;28;20502;-88
2022/06/29 12:02:34;;;;;;;1.58;0.85;;;;;;;;;;5018822;28;20026;-81
2022/06/29 12:05:01;;;;;;;0.80;0.80;;;;;;;;;;5009722;28;20042;-85
2022/06/29 12:07:28;;;;;;;0.40;0.40;;;;;;;;;;5004083;28;20424;-83
2022/06/29 12:09:54;;;;;;;0.50;0.50;;;;;;;;;;4995562;28;20350;-81
2022/06/29 12:12:20;;;;;;;0.95;0.70;;;;;;;;;;4993572;28;20026;-85
2022/06/29 12:14:47;;;;;;;3.22;0.75;;;;;;;;;;4992485;28;20164;-81
2022/06/29 12:17:14;;;;;;;1.25;0.63;;;;;;;;;;5008234;28;20044;-82
2022/06/29 12:19:39;;;;;;;0.80;0.73;;;;;;;;;;5010223;28;20029;-77
2022/06/29 12:22:08;;;;;;;1.92;1.23;;;;;;;;;;5010003;28;20025;-79
2022/06/29 12:24:33;;;;;;;0.65;0.52;;;;;;;;;;5000336;28;20125;-81
2022/06/29 12:26:59;;;;;;;2.15;1.65;;;;;;;;;;5003364;28;20112;-80
2022/06/29 12:29:29;;;;;;;0.45;0.45;;;;;;;;;;5007795;28;20030;-78
2022/06/29 12:31:56;;;;;;;0.90;0.90;;;;;;;;;;5016714;28;20070;-78
2022/06/29 12:34:22;;;;;;;2.38;0.75;;;;;;;;;;5035088;28;20032;-79
2022/06/29 12:36:51;;;;;;;2.92;1.27;;;;;;;;;;5017292;28;20026;-78
2022/06/29 12:39:18;;;;;;;1.13;1.02;;;;;;;;;;5017186;28;20036;-80
2022/06/29 12:41:47;;;;;;;0.80;0.80;;;;;;;;;;5017279;28;20030;-79
2022/06/29 12:44:12;;;;;;;2.53;1.38;;;;;;;;;;5017743;28;20406;-79
2022/06/29 12:46:39;;;;;;;0.60;0.52;;;;;;;;;;5018105;28;20068;-79
2022/06/29 12:49:07;;;;;;;0.85;0.43;;;;;;;;;;5016256;28;20022;-79
2022/06/29 12:51:32;;;;;;;0.80;0.80;;;;;;;;;;5013930;28;20044;-79
2022/06/29 12:54:00;;;;;;;1.48;1.15;;;;;;;;;;5014645;28;20030;-80
2022/06/29 12:56:26;;;;;;;1.60;0.85;;;;;;;;;;5013792;28;20112;-80
2022/06/29 12:58:51;;;;;;;0.85;0.68;;;;;;;;;;5017085;28;20144;-82
2022/06/29 13:01:17;;;;;;;0.60;0.60;;;;;;;;;;5016734;28;20045;-79
2022/06/29 13:03:42;;;;;;;3.63;1.10;;;;;;;;;;5000177;28;20328;-79
2022/06/29 13:06:10;;;;;;;2.13;1.02;;;;;;;;;;5017224;28;20053;-80
2022/06/29 13:08:35;;;;;;;1.73;0.60;;;;;;;;;;5016505;28;20025;-80
2022/06/29 13:11:01;;;;;;;0.70;0.47;;;;;;;;;;5016622;28;20036;-80
2022/06/29 13:13:32;;;;;;;1.63;1.00;;;;;;;;;;5016081;28;20052;-80
2022/06/29 13:16:00;;;;;;;0.93;0.65;;;;;;;;;;5016758;28;20044;-80
2022/06/29 13:18:31;;;;;;;0.52;0.52;;;;;;;;;;5016501;28;20453;-80
2022/06/29 13:21:01;;;;;;;0.82;0.70;;;;;;;;;;5017862;28;20038;-79
2022/06/29 13:23:27;;;;;;;0.90;0.77;;;;;;;;;;5029154;28;20101;-80
2022/06/29 13:25:56;;;;;;;0.70;0.60;;;;;;;;;;5016628;28;20049;-80
2022/06/29 13:28:21;;;;;;;0.90;0.80;;;;;;;;;;5000033;28;20021;-80
2022/06/29 13:30:49;;;;;;;0.68;0.63;;;;;;;;;;5014931;28;20072;-80
2022/06/29 13:33:18;;;;;;;0.47;0.30;;;;;;;;;;5015291;28;20041;-80
2022/06/29 13:35:45;;;;;;;1.55;1.20;;;;;;;;;;4998524;28;20618;-80
2022/06/29 13:41:09;;;;;;;0.60;0.55;;;;;;;;;;4986392;28;20069;-79
2022/06/29 13:43:38;;;;;;;0.80;0.80;;;;;;;;;;5026462;28;20025;-80
2022/06/29 13:46:03;;;;;;;0.93;0.68;;;;;;;;;;5022342;28;20033;-80
2022/06/29 13:48:28;;;;;;;0.63;0.40;;;;;;;;;;5015083;28;20032;-80
2022/06/29 13:50:54;;;;;;;0.45;0.45;;;;;;;;;;5022086;28;20029;-79
2022/06/29 13:53:20;;;;;;;1.95;1.10;;;;;;;;;;5034662;28;20021;-79
2022/06/29 13:55:45;;;;;;;0.85;0.85;;;;;;;;;;5033636;28;20021;-79
2022/06/29 13:58:11;;;;;;;0.38;0.38;;;;;;;;;;5015912;28;20087;-79
2022/06/29 14:00:39;;;;;;;0.63;0.50;;;;;;;;;;5016897;28;20029;-80
2022/06/29 14:03:07;;;;;;;0.85;0.63;;;;;;;;;;5014544;28;20041;-78
2022/06/29 14:05:35;;;;;;;1.00;0.75;;;;;;;;;;5026670;28;20057;-79
2022/06/29 14:08:00;;;;;;;2.65;1.58;;;;;;;;;;5013476;28;20112;-79
2022/06/29 14:10:25;;;;;;;1.20;0.82;;;;;;;;;;5025645;28;20096;-79
2022/06/29 14:12:51;;;;;;;1.30;0.93;;;;;;;;;;5021708;28;20037;-79
2022/06/29 14:15:16;;;;;;;1.10;0.90;;;;;;;;;;5013846;28;20088;-79
2022/06/29 14:17:41;;;;;;;0.50;0.50;;;;;;;;;;5014938;28;20021;-78
2022/06/29 14:20:08;;;;;;;0.38;0.38;;;;;;;;;;5014498;28;20037;-78
2022/06/29 14:22:33;;;;;;;0.65;0.65;;;;;;;;;;5010221;28;20037;-78
2022/06/29 14:24:59;;;;;;;0.75;0.73;;;;;;;;;;5009664;28;20395;-77
2022/06/29 14:27:25;;;;;;;1.38;0.60;;;;;;;;;;5023324;28;20053;-77
2022/06/29 14:29:54;;;;;;;0.60;0.60;;;;;;;;;;5013373;28;20037;-79
2022/06/29 14:32:19;;;;;;;0.82;0.60;;;;;;;;;;5022072;28;20108;-78
2022/06/29 14:34:45;;;;;;;1.05;0.85;;;;;;;;;;5029750;28;20148;-78
2022/06/29 14:37:11;;;;;;;1.30;0.75;;;;;;;;;;5015138;28;20033;-78
2022/06/29 14:39:38;;;;;;;0.90;0.40;;;;;;;;;;5013315;28;20617;-77
2022/06/29 14:42:06;;;;;;;1.25;0.85;;;;;;;;;;5013105;28;20493;-78
2022/06/29 14:44:31;;;;;;;1.48;0.80;;;;;;;;;;5013258;28;20075;-78
2022/06/29 14:46:57;;;;;;;0.70;0.70;;;;;;;;;;5013267;28;20112;-78
2022/06/29 14:49:24;;;;;;;0.57;0.57;;;;;;;;;;5013818;28;20442;-77
2022/06/29 14:51:50;;;;;;;0.52;0.52;;;;;;;;;;5013532;28;20403;-78
2022/06/29 14:54:17;;;;;;;0.88;0.73;;;;;;;;;;5013017;28;20446;-78
2022/06/29 14:56:50;;;;;;;0.57;0.57;;;;;;;;;;5024480;28;20072;-78
2022/06/29 14:59:16;;;;;;;1.80;1.05;;;;;;;;;;5013171;28;20018;-77
2022/06/29 15:01:46;;;;;;;1.27;0.90;;;;;;;;;;5018235;28;20037;-79
2022/06/29 15:04:15;;;;;;;0.25;0.25;;;;;;;;;;5016313;28;20101;-77
2022/06/29 15:06:41;;;;;;;1.23;0.65;;;;;;;;;;5013513;28;20034;-77
2022/06/29 15:09:06;;;;;;;1.08;0.75;;;;;;;;;;5012823;28;20049;-79
2022/06/29 15:11:34;;;;;;;0.60;0.60;;;;;;;;;;5017296;28;20088;-78
2022/06/29 15:14:02;;;;;;;0.52;0.52;;;;;;;;;;5024115;28;20116;-77
2022/06/29 15:16:29;;;;;;;2.72;0.43;;;;;;;;;;5017052;28;20034;-76
2022/06/29 15:18:57;;;;;;;1.80;1.00;;;;;;;;;;5020096;28;20433;-77